createdAt,value
2019-04-04T00:02:19.103Z,25.80
2019-04-04T00:04:53.748Z,21.87
2019-04-04T00:07:30.141Z,24.97
2019-04-04T00:10:04.140Z,16.83
2019-04-04T00:12:39.649Z,15.53
2019-04-04T00:15:15.446Z,16.03
2019-04-04T00:17:51.853Z,21.90
2019-04-04T00:20:24.687Z,15.47
2019-04-04T00:22:58.112Z,37.73
2019-04-04T00:25:35.196Z,25.20
2019-04-04T00:28:08.475Z,20.60
2019-04-04T00:30:43.915Z,16.70
2019-04-04T00:33:17.317Z,13.47
2019-04-04T00:35:52.815Z,26.27
2019-04-04T00:38:27.763Z,20.17
2019-04-04T00:41:02.586Z,24.40
2019-04-04T00:43:35.957Z,17.13
2019-04-04T00:46:11.011Z,20.03
2019-04-04T00:48:45.053Z,19.00
2019-04-04T00:51:18.531Z,16.97
2019-04-04T00:53:52.625Z,14.10
2019-04-04T00:56:26.003Z,18.33
2019-04-04T00:59:00.307Z,23.07
2019-04-04T01:01:35.029Z,18.87
2019-04-04T01:04:09.351Z,18.13
2019-04-04T01:06:44.218Z,15.70
2019-04-04T01:09:19.372Z,19.10
2019-04-04T01:11:52.942Z,14.70
2019-04-04T01:14:30.278Z,33.93
2019-04-04T01:17:04.036Z,17.33
2019-04-04T01:19:39.200Z,32.13
2019-04-04T01:22:14.220Z,22.40
2019-04-04T01:24:49.156Z,19.13
2019-04-04T01:27:23.499Z,16.37
2019-04-04T01:29:58.148Z,17.20
2019-04-04T01:32:31.267Z,19.70
2019-04-04T01:35:04.393Z,18.60
2019-04-04T01:37:39.739Z,18.33
2019-04-04T01:40:15.357Z,14.50
2019-04-04T01:42:50.667Z,14.27
2019-04-04T01:45:25.314Z,14.67
2019-04-04T01:47:58.751Z,30.07
2019-04-04T01:50:31.916Z,13.73
2019-04-04T01:53:06.574Z,19.37
2019-04-04T01:55:39.538Z,18.83
2019-04-04T01:58:14.252Z,12.03
2019-04-04T02:00:47.529Z,11.63
2019-04-04T02:03:23.357Z,12.53
2019-04-04T02:05:58.158Z,12.17
2019-04-04T02:08:32.188Z,13.80
2019-04-04T02:11:06.623Z,11.10
2019-04-04T02:13:40.889Z,11.27
2019-04-04T02:16:17.073Z,14.47
2019-04-04T02:18:53.585Z,11.70
2019-04-04T02:21:28.450Z,10.77
2019-04-04T02:24:02.900Z,16.70
2019-04-04T02:26:37.894Z,9.03
2019-04-04T02:29:12.761Z,11.40
2019-04-04T02:31:53.591Z,10.83
2019-04-04T02:34:27.520Z,9.67
2019-04-04T02:37:00.737Z,10.30
2019-04-04T02:39:38.736Z,14.77
2019-04-04T02:42:11.860Z,10.43
2019-04-04T02:44:46.537Z,11.53
2019-04-04T02:47:21.349Z,19.93
2019-04-04T02:50:00.509Z,12.80
2019-04-04T02:52:32.507Z,18.07
2019-04-04T02:55:06.157Z,19.47
2019-04-04T02:57:46.621Z,14.13
2019-04-04T03:00:20.779Z,16.10
2019-04-04T03:02:57.479Z,33.73
2019-04-04T03:05:30.688Z,18.67
2019-04-04T03:08:04.846Z,24.03
2019-04-04T03:10:38.304Z,20.53
2019-04-04T03:13:12.665Z,25.10
2019-04-04T03:15:48.214Z,25.17
2019-04-04T03:18:21.741Z,19.60
2019-04-04T03:20:56.711Z,18.57
2019-04-04T03:23:33.994Z,14.10
2019-04-04T03:26:09.066Z,17.00
2019-04-04T03:28:44.099Z,11.50
2019-04-04T03:31:18.377Z,15.93
2019-04-04T03:33:51.424Z,20.23
2019-04-04T03:36:25.496Z,21.20
2019-04-04T03:38:58.624Z,16.23
2019-04-04T03:41:36.668Z,18.20
2019-04-04T03:44:11.990Z,19.03
2019-04-04T03:46:51.965Z,16.40
2019-04-04T03:49:26.872Z,12.57
2019-04-04T03:52:03.022Z,17.53
2019-04-04T03:54:36.092Z,19.27
2019-04-04T03:57:12.197Z,23.60
2019-04-04T03:59:47.090Z,14.27
2019-04-04T04:02:23.773Z,22.87
2019-04-04T04:05:00.491Z,16.77
2019-04-04T04:07:35.206Z,23.00
2019-04-04T04:10:10.642Z,25.10
2019-04-04T04:12:44.576Z,25.33
2019-04-04T04:15:17.557Z,18.93
2019-04-04T04:17:51.817Z,24.13
2019-04-04T04:20:24.650Z,31.07
2019-04-04T04:22:59.473Z,29.77
2019-04-04T04:25:35.213Z,24.80
2019-04-04T04:28:07.977Z,26.03
2019-04-04T04:30:41.604Z,28.00
2019-04-04T04:33:15.096Z,19.93
2019-04-04T04:35:48.004Z,17.13
2019-04-04T04:38:25.615Z,22.53
2019-04-04T04:40:56.555Z,25.10
2019-04-04T04:43:33.438Z,19.87
2019-04-04T04:46:05.437Z,16.70
2019-04-04T04:48:38.955Z,28.03
2019-04-04T04:51:12.715Z,21.30
2019-04-04T04:53:50.177Z,20.87
2019-04-04T04:56:22.308Z,24.07
2019-04-04T04:58:56.006Z,21.77
2019-04-04T05:01:29.338Z,38.00
2019-04-04T05:04:03.396Z,36.33
2019-04-04T05:06:36.666Z,27.53
2019-04-04T05:09:13.954Z,20.93
2019-04-04T05:11:50.255Z,40.70
2019-04-04T05:14:23.982Z,29.07
2019-04-04T05:16:57.400Z,26.63
2019-04-04T05:19:31.085Z,32.93
2019-04-04T05:22:07.127Z,47.33
2019-04-04T05:24:41.829Z,35.40
2019-04-04T05:27:15.628Z,30.27
2019-04-04T05:29:50.865Z,41.07
2019-04-04T05:32:26.184Z,37.00
2019-04-04T05:35:01.348Z,33.63
2019-04-04T05:37:37.986Z,58.80
2019-04-04T05:40:12.745Z,32.33
2019-04-04T05:42:48.358Z,31.27
2019-04-04T05:45:25.665Z,47.57
2019-04-04T05:48:00.619Z,50.33
2019-04-04T05:50:36.768Z,35.57
2019-04-04T05:53:10.106Z,48.53
2019-04-04T05:55:43.909Z,41.33
2019-04-04T05:58:21.751Z,65.83
2019-04-04T06:00:57.590Z,55.67
2019-04-04T06:03:30.018Z,54.20
2019-04-04T06:06:04.017Z,68.43
2019-04-04T06:08:42.501Z,73.53
2019-04-04T06:11:21.644Z,63.73
2019-04-04T06:13:59.023Z,47.03
2019-04-04T06:16:35.033Z,50.93
2019-04-04T06:19:10.107Z,71.73
2019-04-04T06:21:45.207Z,46.93
2019-04-04T06:24:22.738Z,28.50
2019-04-04T06:26:58.627Z,44.47
2019-04-04T06:29:33.521Z,21.40
2019-04-04T06:32:09.165Z,33.83
2019-04-04T06:34:44.847Z,46.43
2019-04-04T06:37:20.711Z,38.63
2019-04-04T06:39:54.488Z,41.93
2019-04-04T06:42:30.226Z,41.87
2019-04-04T06:45:03.901Z,43.03
2019-04-04T06:47:40.574Z,32.13
2019-04-04T06:50:14.054Z,48.53
2019-04-04T06:52:50.410Z,47.40
2019-04-04T06:55:28.323Z,35.47
2019-04-04T06:58:02.112Z,50.47
2019-04-04T07:00:35.832Z,47.57
2019-04-04T07:03:11.440Z,40.63
2019-04-04T07:05:51.062Z,42.60
2019-04-04T07:08:26.405Z,38.90
2019-04-04T07:11:03.345Z,37.20
2019-04-04T07:13:42.661Z,38.67
2019-04-04T07:16:14.209Z,33.53
2019-04-04T07:18:47.888Z,43.43
2019-04-04T07:21:21.340Z,33.17
2019-04-04T07:23:54.923Z,33.03
2019-04-04T07:26:28.907Z,38.40
2019-04-04T07:29:05.801Z,37.63
2019-04-04T07:31:40.774Z,43.70
2019-04-04T07:34:16.569Z,25.77
2019-04-04T07:36:51.858Z,24.00
2019-04-04T07:39:25.869Z,38.80
2019-04-04T07:42:09.025Z,28.77
2019-04-04T07:44:42.954Z,22.47
2019-04-04T07:47:18.808Z,17.50
2019-04-04T07:49:58.270Z,28.90
2019-04-04T07:52:35.519Z,25.53
2019-04-04T07:55:11.059Z,18.90
2019-04-04T07:57:46.457Z,23.77
2019-04-04T08:00:20.297Z,18.17
2019-04-04T08:02:54.405Z,18.90
2019-04-04T08:05:27.910Z,12.43
2019-04-04T08:08:05.757Z,24.80
2019-04-04T08:10:39.359Z,22.23
2019-04-04T08:13:14.190Z,21.23
2019-04-04T08:15:49.339Z,16.40
2019-04-04T08:18:24.560Z,18.60
2019-04-04T08:20:59.971Z,16.80
2019-04-04T08:23:35.140Z,16.03
2019-04-04T08:26:10.158Z,22.50
2019-04-04T08:28:45.633Z,16.63
2019-04-04T08:31:20.679Z,13.53
2019-04-04T08:33:54.521Z,16.60
2019-04-04T08:36:28.153Z,19.43
2019-04-04T08:39:07.989Z,20.10
2019-04-04T08:41:41.865Z,11.63
2019-04-04T08:44:17.547Z,15.80
2019-04-04T08:46:55.614Z,15.40
2019-04-04T08:49:30.863Z,7.43
2019-04-04T08:52:16.058Z,10.13
2019-04-04T08:54:42.880Z,14.83
2019-04-04T08:57:18.335Z,22.90
2019-04-04T08:59:57.717Z,17.10
2019-04-04T09:02:33.258Z,10.73
2019-04-04T09:05:12.145Z,9.53
2019-04-04T09:07:44.205Z,8.53
2019-04-04T09:10:21.106Z,13.80
2019-04-04T09:12:55.624Z,8.73
2019-04-04T09:15:32.219Z,15.43
2019-04-04T09:18:09.416Z,27.90
2019-04-04T09:20:41.611Z,9.57
2019-04-04T09:23:17.897Z,13.37
2019-04-04T09:25:51.239Z,11.47
2019-04-04T09:28:28.233Z,16.83
2019-04-04T09:31:02.234Z,10.80
2019-04-04T09:33:37.099Z,11.77
2019-04-04T09:36:11.338Z,21.13
2019-04-04T09:38:46.634Z,11.23
2019-04-04T09:41:21.637Z,11.60
2019-04-04T09:43:59.607Z,16.50
2019-04-04T09:46:34.426Z,22.27
2019-04-04T09:49:14.390Z,16.07
2019-04-04T09:51:51.252Z,13.10
2019-04-04T09:54:28.380Z,15.63
2019-04-04T09:57:03.744Z,13.50
2019-04-04T09:59:40.741Z,8.40
2019-04-04T10:02:15.031Z,7.00
2019-04-04T10:04:50.876Z,10.53
2019-04-04T10:07:25.323Z,12.87
2019-04-04T10:10:00.449Z,12.47
2019-04-04T10:12:33.498Z,18.77
2019-04-04T10:15:09.799Z,11.90
2019-04-04T10:17:44.237Z,15.07
2019-04-04T10:20:18.999Z,10.90
2019-04-04T10:22:53.690Z,18.63
2019-04-04T10:25:30.682Z,22.23
2019-04-04T10:28:04.465Z,22.50
2019-04-04T10:30:39.008Z,15.03
2019-04-04T10:33:15.836Z,15.23
2019-04-04T10:35:52.392Z,24.90
2019-04-04T10:38:27.367Z,20.63
2019-04-04T10:41:10.922Z,14.40
2019-04-04T10:43:46.975Z,13.50
2019-04-04T10:46:33.851Z,7.77
2019-04-04T10:49:11.926Z,12.37
2019-04-04T10:51:49.949Z,12.83
2019-04-04T10:54:26.272Z,12.97
2019-04-04T10:57:05.323Z,11.67
2019-04-04T10:59:41.145Z,10.17
2019-04-04T11:02:15.656Z,31.20
2019-04-04T11:04:50.160Z,25.73
2019-04-04T11:07:23.218Z,14.50
2019-04-04T11:09:59.610Z,13.03
2019-04-04T11:12:38.091Z,28.10
2019-04-04T11:15:12.351Z,15.97
2019-04-04T11:17:46.501Z,14.80
2019-04-04T11:20:21.405Z,26.80
2019-04-04T11:22:56.462Z,22.70
2019-04-04T11:25:33.324Z,11.30
2019-04-04T11:28:08.405Z,12.40
2019-04-04T11:30:43.804Z,13.93
2019-04-04T11:33:21.329Z,14.13
2019-04-04T11:35:56.487Z,14.47
2019-04-04T11:38:31.977Z,19.47
2019-04-04T11:41:12.438Z,24.07
2019-04-04T11:43:46.530Z,12.30
2019-04-04T11:46:23.284Z,9.60
2019-04-04T11:48:58.477Z,18.83
2019-04-04T11:51:34.061Z,21.47
2019-04-04T11:54:09.878Z,22.37
2019-04-04T11:56:42.760Z,7.20
2019-04-04T11:59:21.744Z,8.17
2019-04-04T12:01:57.919Z,26.73
2019-04-04T12:04:34.617Z,12.87
2019-04-04T12:07:10.701Z,21.23
2019-04-04T12:09:45.130Z,11.33
2019-04-04T12:12:19.916Z,12.70
2019-04-04T12:14:56.927Z,16.47
2019-04-04T12:17:33.466Z,15.10
2019-04-04T12:20:10.428Z,14.13
2019-04-04T12:22:43.691Z,17.57
2019-04-04T12:25:18.055Z,27.70
2019-04-04T12:27:52.573Z,15.07
2019-04-04T12:30:27.855Z,19.87
2019-04-04T12:33:02.449Z,14.77
2019-04-04T12:35:41.536Z,7.07
2019-04-04T12:38:14.408Z,5.53
2019-04-04T12:40:49.345Z,13.27
2019-04-04T12:43:22.804Z,11.40
2019-04-04T12:46:00.461Z,13.03
2019-04-04T12:48:36.111Z,7.93
2019-04-04T12:51:11.268Z,10.30
2019-04-04T12:53:45.281Z,7.17
2019-04-04T12:56:20.168Z,9.53
2019-04-04T12:58:54.018Z,11.27
2019-04-04T13:01:28.038Z,13.33
2019-04-04T13:04:01.021Z,12.07
2019-04-04T13:06:34.655Z,15.23
2019-04-04T13:09:10.380Z,11.73
2019-04-04T13:11:44.634Z,11.00
2019-04-04T13:14:20.568Z,11.67
2019-04-04T13:16:57.217Z,12.10
2019-04-04T13:19:34.065Z,12.13
2019-04-04T13:22:09.868Z,12.87
2019-04-04T13:24:45.172Z,15.70
2019-04-04T13:27:26.238Z,12.53
2019-04-04T13:30:02.080Z,15.80
2019-04-04T13:32:39.645Z,24.03
2019-04-04T13:35:16.704Z,13.83
2019-04-04T13:37:50.492Z,20.97
2019-04-04T13:40:27.818Z,16.30
2019-04-04T13:43:07.274Z,20.40
2019-04-04T13:45:41.436Z,17.53
2019-04-04T13:48:17.868Z,15.90
2019-04-04T13:50:55.575Z,14.10
2019-04-04T13:53:31.284Z,15.93
2019-04-04T13:56:06.510Z,10.00
2019-04-04T13:58:41.143Z,12.47
2019-04-04T14:01:16.004Z,22.17
2019-04-04T14:03:52.733Z,14.17
2019-04-04T14:06:28.782Z,23.00
2019-04-04T14:09:06.801Z,17.33
2019-04-04T14:11:47.802Z,12.53
2019-04-04T14:14:21.918Z,12.00
2019-04-04T14:16:56.910Z,17.27
2019-04-04T14:19:31.566Z,18.43
2019-04-04T14:22:08.428Z,25.43
2019-04-04T14:24:43.969Z,12.63
2019-04-04T14:27:20.482Z,14.97
2019-04-04T14:29:58.060Z,16.53
2019-04-04T14:32:36.392Z,10.50
2019-04-04T14:35:14.031Z,11.07
2019-04-04T14:37:55.925Z,19.63
2019-04-04T14:40:33.489Z,23.27
2019-04-04T14:43:09.939Z,24.93
2019-04-04T14:45:46.985Z,12.07
2019-04-04T14:48:24.802Z,17.43
2019-04-04T14:50:59.804Z,16.40
2019-04-04T14:53:35.509Z,13.50
2019-04-04T14:56:09.918Z,17.30
2019-04-04T14:58:43.346Z,19.03
2019-04-04T15:01:26.964Z,22.87
2019-04-04T15:04:04.442Z,37.17
2019-04-04T15:06:45.688Z,40.67
2019-04-04T15:09:20.307Z,23.33
2019-04-04T15:11:53.932Z,31.60
2019-04-04T15:14:28.666Z,18.07
2019-04-04T15:17:05.069Z,25.63
2019-04-04T15:19:40.860Z,18.97
2019-04-04T15:22:15.144Z,16.33
2019-04-04T15:24:48.806Z,27.80
2019-04-04T15:27:24.796Z,14.07
2019-04-04T15:29:59.537Z,17.53
2019-04-04T15:32:36.008Z,15.57
2019-04-04T15:35:11.011Z,13.57
2019-04-04T15:37:46.906Z,20.33
2019-04-04T15:40:22.079Z,30.37
2019-04-04T15:42:58.790Z,18.57
2019-04-04T15:45:32.971Z,15.93
2019-04-04T15:48:16.090Z,22.57
2019-04-04T15:50:59.733Z,20.07
2019-04-04T15:53:34.318Z,19.23
2019-04-04T15:56:11.778Z,20.47
2019-04-04T15:58:48.300Z,26.70
2019-04-04T16:01:26.822Z,17.53
2019-04-04T16:04:01.548Z,17.43
2019-04-04T16:06:35.684Z,17.87
2019-04-04T16:09:12.854Z,21.00
2019-04-04T16:11:49.678Z,19.87
2019-04-04T16:14:22.450Z,15.30
2019-04-04T16:16:57.948Z,15.93
2019-04-04T16:19:31.428Z,12.63
2019-04-04T16:22:05.234Z,20.37
2019-04-04T16:24:40.980Z,21.70
2019-04-04T16:27:15.490Z,19.30
2019-04-04T16:29:52.452Z,17.57
2019-04-04T16:32:31.223Z,20.10
2019-04-04T16:35:09.552Z,25.07
2019-04-04T16:37:44.540Z,25.20
2019-04-04T16:40:19.215Z,25.80
2019-04-04T16:42:54.988Z,30.93
2019-04-04T16:45:31.482Z,18.83
2019-04-04T16:48:09.300Z,20.97
2019-04-04T16:50:44.754Z,43.17
2019-04-04T16:53:19.175Z,31.30
2019-04-04T16:55:54.271Z,25.43
2019-04-04T16:58:30.108Z,18.27
2019-04-04T17:01:11.970Z,24.30
2019-04-04T17:04:00.675Z,19.37
2019-04-04T17:06:27.450Z,18.93
2019-04-04T17:09:04.321Z,20.40
2019-04-04T17:11:39.167Z,20.07
2019-04-04T17:14:13.042Z,18.70
2019-04-04T17:16:48.339Z,25.07
2019-04-04T17:19:24.165Z,18.70
2019-04-04T17:21:57.806Z,25.33
2019-04-04T17:24:34.462Z,28.03
2019-04-04T17:27:11.870Z,24.93
2019-04-04T17:29:48.982Z,27.77
2019-04-04T17:32:27.305Z,32.97
2019-04-04T17:35:04.203Z,31.77
2019-04-04T17:37:41.821Z,23.47
2019-04-04T17:40:15.411Z,27.63
2019-04-04T17:42:49.897Z,37.03
2019-04-04T17:45:24.653Z,47.10
2019-04-04T17:47:59.337Z,56.20
2019-04-04T17:50:37.245Z,30.57
2019-04-04T17:53:14.341Z,44.10
2019-04-04T17:55:48.788Z,27.67
2019-04-04T17:58:24.239Z,33.73
2019-04-04T18:00:59.958Z,26.93
2019-04-04T18:03:35.352Z,27.77
2019-04-04T18:06:09.139Z,25.83
2019-04-04T18:08:44.394Z,37.00
2019-04-04T18:11:21.057Z,30.30
2019-04-04T18:14:01.136Z,48.83
2019-04-04T18:16:33.163Z,40.70
2019-04-04T18:19:08.363Z,29.83
2019-04-04T18:21:43.627Z,36.73
2019-04-04T18:24:17.377Z,35.83
2019-04-04T18:26:53.454Z,36.80
2019-04-04T18:29:27.316Z,33.67
2019-04-04T18:32:02.821Z,40.63
2019-04-04T18:34:38.091Z,41.20
2019-04-04T18:37:20.696Z,44.80
2019-04-04T18:39:54.978Z,35.20
2019-04-04T18:42:32.055Z,37.80
2019-04-04T18:45:07.702Z,48.93
2019-04-04T18:47:41.208Z,49.43
2019-04-04T18:50:16.647Z,47.97
2019-04-04T18:52:51.329Z,39.77
2019-04-04T18:55:27.043Z,45.77
2019-04-04T18:58:01.772Z,65.73
2019-04-04T19:00:43.493Z,70.63
2019-04-04T19:03:19.953Z,49.90
2019-04-04T19:05:54.892Z,58.30
2019-04-04T19:08:30.754Z,60.87
2019-04-04T19:11:08.102Z,51.73
2019-04-04T19:13:44.470Z,49.17
2019-04-04T19:16:17.842Z,65.80
2019-04-04T19:18:53.615Z,40.93
2019-04-04T19:21:28.117Z,48.70
2019-04-04T19:24:01.822Z,39.53
2019-04-04T19:26:36.950Z,44.00
2019-04-04T19:29:11.473Z,44.97
2019-04-04T19:31:44.836Z,39.23
2019-04-04T19:34:20.370Z,44.73
2019-04-04T19:36:56.069Z,55.93
2019-04-04T19:39:30.064Z,41.00
2019-04-04T19:42:05.131Z,39.07
2019-04-04T19:44:38.832Z,39.77
2019-04-04T19:47:13.809Z,42.37
2019-04-04T19:49:47.596Z,55.87
2019-04-04T19:52:21.793Z,50.07
2019-04-04T19:54:55.374Z,30.67
2019-04-04T19:57:29.538Z,76.10
2019-04-04T20:00:06.856Z,46.50
2019-04-04T20:02:44.010Z,44.10
2019-04-04T20:05:17.542Z,46.80
2019-04-04T20:07:53.010Z,37.63
2019-04-04T20:10:26.513Z,46.23
2019-04-04T20:13:04.781Z,69.27
2019-04-04T20:15:38.639Z,40.70
2019-04-04T20:18:14.717Z,38.97
2019-04-04T20:20:48.202Z,36.23
2019-04-04T20:23:21.928Z,38.20
2019-04-04T20:25:55.041Z,33.03
2019-04-04T20:28:29.112Z,34.63
2019-04-04T20:31:03.576Z,34.67
2019-04-04T20:33:39.059Z,23.37
2019-04-04T20:36:14.150Z,24.93
2019-04-04T20:38:47.823Z,27.43
2019-04-04T20:41:21.952Z,33.33
2019-04-04T20:43:56.893Z,26.77
2019-04-04T20:46:31.132Z,21.60
2019-04-04T20:49:05.872Z,22.33
2019-04-04T20:51:40.829Z,21.80
2019-04-04T20:54:15.795Z,25.00
2019-04-04T20:56:50.841Z,21.83
2019-04-04T20:59:28.036Z,16.67
2019-04-04T21:02:02.973Z,19.07
2019-04-04T21:04:39.176Z,26.57
2019-04-04T21:07:12.805Z,23.27
2019-04-04T21:09:46.784Z,15.70
2019-04-04T21:12:20.209Z,16.90
2019-04-04T21:14:54.484Z,17.20
2019-04-04T21:17:28.039Z,27.37
2019-04-04T21:20:03.438Z,14.83
2019-04-04T21:22:36.735Z,17.43
2019-04-04T21:25:10.323Z,18.67
2019-04-04T21:27:45.238Z,24.20
2019-04-04T21:30:21.023Z,42.07
2019-04-04T21:32:53.997Z,61.20
2019-04-04T21:35:28.764Z,33.57
2019-04-04T21:38:02.178Z,62.20
2019-04-04T21:40:37.433Z,44.67
2019-04-04T21:43:12.089Z,32.30
2019-04-04T21:45:47.570Z,41.70
2019-04-04T21:48:20.954Z,65.07
2019-04-04T21:50:54.642Z,61.33
2019-04-04T21:53:28.871Z,44.57
2019-04-04T21:56:03.533Z,54.60
2019-04-04T21:58:36.893Z,65.93
2019-04-04T22:01:12.769Z,47.87
2019-04-04T22:03:46.238Z,55.40
2019-04-04T22:06:21.068Z,77.17
2019-04-04T22:08:54.452Z,65.70
2019-04-04T22:11:29.958Z,66.27
2019-04-04T22:14:03.263Z,74.80
2019-04-04T22:16:38.431Z,53.60
2019-04-04T22:19:11.773Z,43.83
2019-04-04T22:21:45.054Z,43.63
2019-04-04T22:24:22.172Z,41.07
2019-04-04T22:26:57.316Z,39.03
2019-04-04T22:29:31.500Z,67.90
2019-04-04T22:32:05.179Z,90.67
2019-04-04T22:34:40.002Z,157.07
2019-04-04T22:37:14.911Z,43.67
2019-04-04T22:39:48.186Z,78.63
2019-04-04T22:42:21.847Z,37.20
2019-04-04T22:44:55.739Z,45.03
2019-04-04T22:47:29.521Z,43.37
2019-04-04T22:50:06.853Z,32.73
2019-04-04T22:52:41.266Z,25.70
2019-04-04T22:55:14.671Z,31.23
2019-04-04T22:57:49.979Z,17.90
2019-04-04T23:00:25.667Z,24.07
2019-04-04T23:03:00.653Z,21.20
2019-04-04T23:05:35.610Z,19.70
2019-04-04T23:08:10.869Z,18.77
2019-04-04T23:10:45.602Z,27.57
2019-04-04T23:13:19.344Z,28.83
2019-04-04T23:15:54.215Z,20.17
2019-04-04T23:18:28.686Z,23.57
2019-04-04T23:21:03.296Z,17.13
2019-04-04T23:23:36.614Z,13.10
2019-04-04T23:26:09.954Z,19.30
2019-04-04T23:28:44.674Z,17.60
2019-04-04T23:31:17.830Z,14.37
2019-04-04T23:33:53.117Z,33.40
2019-04-04T23:36:34.839Z,15.10
2019-04-04T23:39:02.164Z,15.07
2019-04-04T23:41:36.328Z,43.43
2019-04-04T23:44:12.679Z,27.13
2019-04-04T23:46:47.545Z,31.07
2019-04-04T23:49:23.055Z,44.33
2019-04-04T23:51:57.324Z,18.33
2019-04-04T23:54:32.031Z,16.63
2019-04-04T23:57:05.009Z,13.47
2019-04-04T23:59:38.466Z,42.40
